Time;durP1;ratioP1;P1;durP2;ratioP2;P2;SDS_P1;SDS_P2;PMS_P1;PMS_P2;Temp;Humidity;BMP_temperature;BMP_pressure;BME280_temperature;BME280_humidity;BME280_pressure;Samples;Min_cycle;Max_cycle;Signal;HPM_P1;HPM_P2
2023/06/16 00:01:34;;;;;;;10.45;5.90;;;16.90;99.90;;;;;;5079701;28;20052;-58
2023/06/16 00:04:03;;;;;;;9.40;5.78;;;16.80;99.90;;;;;;5096538;28;20124;-58
2023/06/16 00:06:29;;;;;;;10.23;5.97;;;16.60;99.90;;;;;;5097780;28;20043;-58
2023/06/16 00:08:57;;;;;;;10.13;6.05;;;16.60;99.90;;;;;;5097175;28;20044;-58
2023/06/16 00:11:27;;;;;;;9.13;6.35;;;16.60;99.90;;;;;;5097867;28;20048;-56
2023/06/16 00:13:54;;;;;;;9.75;6.10;;;16.60;99.90;;;;;;5098112;28;20036;-58
2023/06/16 00:16:20;;;;;;;10.00;5.90;;;16.60;99.90;;;;;;5097940;28;20040;-58
2023/06/16 00:18:51;;;;;;;8.75;6.22;;;16.60;99.90;;;;;;5103660;28;20060;-58
2023/06/16 00:21:35;;;;;;;9.88;6.57;;;16.60;99.90;;;;;;5104490;28;20533;-59
2023/06/16 00:24:01;;;;;;;10.43;6.65;;;16.40;99.90;;;;;;5104362;28;20048;-58
2023/06/16 00:26:27;;;;;;;11.00;6.47;;;16.10;99.90;;;;;;5103416;28;20097;-58
2023/06/16 00:28:53;;;;;;;10.95;7.03;;;15.90;99.90;;;;;;5104755;28;20067;-58
2023/06/16 00:31:19;;;;;;;11.18;6.55;;;16.00;99.90;;;;;;5104584;28;20044;-58
2023/06/16 00:33:45;;;;;;;10.43;7.20;;;15.70;99.90;;;;;;5104213;28;20036;-58
2023/06/16 00:36:11;;;;;;;9.10;6.55;;;15.60;99.90;;;;;;5104388;28;20044;-58
2023/06/16 00:38:36;;;;;;;10.30;6.47;;;15.50;99.90;;;;;;5103409;28;20407;-59
2023/06/16 00:41:02;;;;;;;9.95;6.38;;;15.40;99.90;;;;;;5104329;28;20090;-58
2023/06/16 00:43:28;;;;;;;10.68;6.53;;;15.50;99.90;;;;;;5104900;28;20131;-58
2023/06/16 00:45:53;;;;;;;9.15;6.82;;;15.30;99.90;;;;;;5104089;28;20079;-58
2023/06/16 00:48:20;;;;;;;10.73;6.82;;;15.40;99.90;;;;;;5104430;28;20044;-58
2023/06/16 00:50:47;;;;;;;10.55;7.07;;;15.70;99.90;;;;;;5104101;28;20051;-58
2023/06/16 00:53:13;;;;;;;9.48;7.05;;;15.90;99.90;;;;;;5104388;28;20052;-58
2023/06/16 00:55:40;;;;;;;11.60;6.82;;;15.90;99.90;;;;;;5104244;28;20099;-58
2023/06/16 00:58:05;;;;;;;9.43;6.90;;;16.00;99.90;;;;;;5104235;28;20054;-58
2023/06/16 01:00:35;;;;;;;11.43;7.43;;;16.00;99.90;;;;;;5104823;28;20307;-58
2023/06/16 01:03:04;;;;;;;11.93;7.63;;;15.90;99.90;;;;;;5104009;28;20048;-58
2023/06/16 01:05:30;;;;;;;10.70;8.15;;;16.00;99.90;;;;;;5102978;28;20053;-58
2023/06/16 01:08:35;;;;;;;11.32;8.02;;;15.90;99.90;;;;;;5104321;28;20046;-59
2023/06/16 01:11:17;;;;;;;9.95;7.60;;;16.00;99.90;;;;;;5103656;28;20123;-58
2023/06/16 01:14:14;;;;;;;10.95;7.22;;;16.00;99.90;;;;;;5104263;28;20051;-58
2023/06/16 01:16:42;;;;;;;10.45;7.43;;;16.00;99.90;;;;;;5103981;28;20050;-58
2023/06/16 01:19:13;;;;;;;11.18;7.13;;;16.00;99.90;;;;;;5103789;28;20084;-58
2023/06/16 01:22:18;;;;;;;9.02;6.78;;;15.90;99.90;;;;;;5104540;28;20036;-58
2023/06/16 01:24:47;;;;;;;10.25;7.07;;;16.00;99.90;;;;;;5093226;28;20047;-58
2023/06/16 01:27:17;;;;;;;10.18;7.18;;;16.00;99.90;;;;;;5104169;28;20059;-58
2023/06/16 01:29:43;;;;;;;11.20;7.28;;;15.90;99.90;;;;;;5098796;28;20052;-58
2023/06/16 01:32:10;;;;;;;10.75;7.85;;;16.00;99.90;;;;;;5100445;28;20048;-58
2023/06/16 01:34:37;;;;;;;10.50;7.55;;;15.90;99.90;;;;;;5101217;28;20095;-58
2023/06/16 01:37:04;;;;;;;9.32;6.80;;;16.00;99.90;;;;;;5100385;28;20103;-58
2023/06/16 01:39:31;;;;;;;9.45;6.95;;;15.90;99.90;;;;;;5100846;28;20044;-58
2023/06/16 01:41:58;;;;;;;10.77;7.47;;;16.00;99.90;;;;;;5100713;28;20047;-58
2023/06/16 01:44:27;;;;;;;11.05;7.22;;;16.00;99.90;;;;;;5100567;28;20052;-58
2023/06/16 01:46:53;;;;;;;10.35;7.50;;;15.90;99.90;;;;;;5100317;28;20044;-58
2023/06/16 01:49:19;;;;;;;10.90;7.28;;;15.90;99.90;;;;;;5107416;28;20086;-58
2023/06/16 01:51:45;;;;;;;10.40;7.15;;;15.90;99.90;;;;;;5105285;28;20043;-58
2023/06/16 01:54:10;;;;;;;9.68;7.03;;;15.90;99.90;;;;;;5100082;28;20051;-58
2023/06/16 01:56:36;;;;;;;11.63;7.75;;;15.90;99.90;;;;;;5100435;28;20541;-58
2023/06/16 01:59:02;;;;;;;11.05;8.50;;;15.90;99.90;;;;;;5099254;28;20039;-58
2023/06/16 02:01:37;;;;;;;9.98;7.20;;;15.90;99.90;;;;;;5100224;28;20063;-58
2023/06/16 02:04:11;;;;;;;10.63;8.07;;;15.80;99.90;;;;;;5100278;28;20151;-58
2023/06/16 02:06:49;;;;;;;11.90;7.80;;;15.90;99.90;;;;;;5099834;28;20044;-58
2023/06/16 02:09:16;;;;;;;11.00;8.05;;;15.90;99.90;;;;;;5100474;28;20048;-58
2023/06/16 02:11:43;;;;;;;11.05;8.05;;;15.80;99.90;;;;;;5098750;28;20064;-58
2023/06/16 02:14:10;;;;;;;10.75;7.60;;;15.70;99.90;;;;;;5099939;28;20051;-58
2023/06/16 02:16:42;;;;;;;11.32;8.40;;;15.80;99.90;;;;;;5100092;28;20040;-58
2023/06/16 02:19:09;;;;;;;11.23;8.20;;;15.80;99.90;;;;;;5099676;28;20631;-58
2023/06/16 02:21:36;;;;;;;12.32;8.95;;;15.70;99.90;;;;;;5100027;28;20105;-58
2023/06/16 02:24:03;;;;;;;12.13;9.05;;;15.70;99.90;;;;;;5099621;28;20051;-58
2023/06/16 02:26:29;;;;;;;13.43;9.20;;;15.70;99.90;;;;;;5099847;28;20082;-58
2023/06/16 02:28:55;;;;;;;11.85;8.63;;;15.70;99.90;;;;;;5099888;28;20044;-56
2023/06/16 02:31:21;;;;;;;10.95;8.52;;;15.60;99.90;;;;;;5099751;28;20047;-58
2023/06/16 02:33:51;;;;;;;12.40;9.73;;;15.60;99.90;;;;;;5099179;28;20040;-58
2023/06/16 02:36:17;;;;;;;13.07;9.75;;;15.60;99.90;;;;;;5099689;28;20048;-58
2023/06/16 02:38:43;;;;;;;12.65;9.95;;;15.60;99.90;;;;;;5099943;28;20040;-58
2023/06/16 02:41:09;;;;;;;12.23;9.82;;;15.50;99.90;;;;;;5098693;28;20050;-57
2023/06/16 02:43:35;;;;;;;12.63;9.18;;;15.30;99.90;;;;;;5099691;28;20040;-58
2023/06/16 02:46:01;;;;;;;11.63;9.13;;;14.80;99.90;;;;;;5099464;28;20051;-58
2023/06/16 02:48:27;;;;;;;12.55;9.18;;;14.60;99.90;;;;;;5099154;28;20044;-58
2023/06/16 02:50:53;;;;;;;12.05;9.60;;;14.50;99.90;;;;;;5099202;28;20494;-58
2023/06/16 02:53:19;;;;;;;13.77;9.93;;;14.30;99.90;;;;;;5099367;28;20044;-58
2023/06/16 02:55:48;;;;;;;12.65;9.98;;;14.40;99.90;;;;;;5099395;28;20043;-58
2023/06/16 02:58:14;;;;;;;10.90;9.30;;;14.30;99.90;;;;;;5098806;28;20040;-58
2023/06/16 03:00:39;;;;;;;12.88;9.70;;;14.30;99.90;;;;;;5099564;28;20071;-58
2023/06/16 03:03:07;;;;;;;15.50;9.57;;;14.20;99.90;;;;;;5098880;28;20081;-58
2023/06/16 03:05:33;;;;;;;12.90;10.27;;;13.90;99.90;;;;;;5098933;28;20442;-58
2023/06/16 03:07:59;;;;;;;13.35;10.93;;;13.90;99.90;;;;;;5098918;28;20047;-58
2023/06/16 03:10:25;;;;;;;15.35;11.05;;;14.00;99.90;;;;;;5097252;28;20043;-58
2023/06/16 03:12:50;;;;;;;13.82;10.30;;;13.90;99.90;;;;;;5099093;28;20052;-55
2023/06/16 03:15:16;;;;;;;14.25;11.32;;;13.90;99.90;;;;;;5098677;28;20072;-58
2023/06/16 03:17:43;;;;;;;15.95;11.57;;;13.90;99.90;;;;;;5097861;28;20048;-58
2023/06/16 03:20:09;;;;;;;14.38;11.77;;;13.90;99.90;;;;;;5097338;28;20048;-58
2023/06/16 03:22:35;;;;;;;16.73;12.73;;;13.90;99.90;;;;;;5105316;28;20056;-58
2023/06/16 03:25:04;;;;;;;16.35;12.70;;;14.00;99.90;;;;;;5118618;28;20095;-58
2023/06/16 03:27:30;;;;;;;17.65;12.98;;;14.00;99.90;;;;;;5118924;28;20048;-57
2023/06/16 03:29:56;;;;;;;18.25;13.93;;;14.10;99.90;;;;;;5119095;28;20054;-58
2023/06/16 03:32:22;;;;;;;16.48;13.65;;;14.00;99.90;;;;;;5118469;28;20063;-58
2023/06/16 03:34:48;;;;;;;16.27;12.95;;;14.10;99.90;;;;;;5119016;28;20051;-58
2023/06/16 03:37:14;;;;;;;17.38;13.75;;;14.30;99.90;;;;;;5118360;28;20055;-58
2023/06/16 03:39:40;;;;;;;16.92;13.15;;;14.50;99.90;;;;;;5118551;28;20067;-58
2023/06/16 03:42:06;;;;;;;19.23;14.25;;;14.50;99.90;;;;;;5118818;28;20035;-58
2023/06/16 03:44:32;;;;;;;18.60;13.98;;;14.50;99.90;;;;;;5118778;28;20748;-58
2023/06/16 03:46:58;;;;;;;17.92;13.80;;;14.60;99.90;;;;;;5117400;28;20035;-58
2023/06/16 03:49:23;;;;;;;17.33;13.90;;;14.80;99.90;;;;;;5118492;28;20043;-58
2023/06/16 03:51:49;;;;;;;17.88;14.18;;;14.90;99.90;;;;;;5118564;28;20058;-58
2023/06/16 03:54:17;;;;;;;18.38;14.88;;;14.70;99.90;;;;;;5118185;28;20079;-58
2023/06/16 03:56:43;;;;;;;20.70;14.23;;;14.70;99.90;;;;;;5118683;28;20573;-58
2023/06/16 03:59:09;;;;;;;19.27;15.05;;;14.50;99.90;;;;;;5118823;28;20043;-58
2023/06/16 04:01:38;;;;;;;19.33;15.85;;;14.50;99.90;;;;;;5118412;28;20376;-58
2023/06/16 04:04:05;;;;;;;20.23;14.60;;;14.70;99.90;;;;;;5118358;28;20051;-58
2023/06/16 04:06:34;;;;;;;19.25;14.85;;;14.60;99.90;;;;;;5118049;28;20058;-58
2023/06/16 04:09:01;;;;;;;19.10;15.30;;;14.60;99.90;;;;;;5118892;28;20055;-58
2023/06/16 04:11:27;;;;;;;18.75;14.65;;;14.90;99.90;;;;;;5118125;28;20061;-58
2023/06/16 04:13:53;;;;;;;20.65;14.80;;;15.10;99.90;;;;;;5118500;28;20093;-58
2023/06/16 04:16:19;;;;;;;20.83;16.92;;;15.20;99.90;;;;;;5118284;28;20039;-59
2023/06/16 04:18:48;;;;;;;22.45;18.65;;;15.10;99.90;;;;;;5118578;28;20059;-58
2023/06/16 04:21:16;;;;;;;24.67;19.55;;;15.00;99.90;;;;;;5117946;28;20040;-58
2023/06/16 04:23:42;;;;;;;24.45;19.38;;;15.00;99.90;;;;;;5118011;28;20054;-58
2023/06/16 04:26:08;;;;;;;26.48;19.98;;;15.20;99.90;;;;;;5118815;28;20035;-58
2023/06/16 04:28:44;;;;;;;24.88;19.73;;;15.20;99.90;;;;;;5118188;28;20049;-58
2023/06/16 04:31:11;;;;;;;22.30;19.75;;;15.10;99.90;;;;;;5118179;28;20052;-58
2023/06/16 04:33:41;;;;;;;21.60;19.23;;;15.10;99.90;;;;;;5117617;28;20039;-59
2023/06/16 04:36:07;;;;;;;24.55;20.92;;;15.20;99.90;;;;;;5116660;28;20052;-58
2023/06/16 04:38:33;;;;;;;27.20;20.35;;;15.20;99.90;;;;;;5118373;28;20800;-58
2023/06/16 04:40:59;;;;;;;26.40;20.25;;;15.10;99.90;;;;;;5118092;28;20364;-58
2023/06/16 04:43:24;;;;;;;25.17;20.08;;;15.20;99.90;;;;;;5118439;28;20047;-58
2023/06/16 04:45:50;;;;;;;26.05;19.38;;;15.20;99.90;;;;;;5118006;28;20050;-58
2023/06/16 04:48:16;;;;;;;22.85;19.58;;;15.40;99.90;;;;;;5116770;28;20119;-57
2023/06/16 04:50:42;;;;;;;24.25;19.45;;;15.50;99.90;;;;;;5118057;28;20046;-58
2023/06/16 04:53:08;;;;;;;24.20;19.20;;;15.80;99.90;;;;;;5118073;28;20108;-57
2023/06/16 04:55:33;;;;;;;25.20;19.90;;;15.90;99.90;;;;;;5118104;28;20058;-58
2023/06/16 04:57:59;;;;;;;25.48;19.05;;;15.90;99.90;;;;;;5117565;28;20095;-58
2023/06/16 05:00:27;;;;;;;26.83;18.83;;;15.80;99.90;;;;;;5118630;28;20036;-57
2023/06/16 05:02:53;;;;;;;23.83;17.58;;;15.90;99.90;;;;;;5116012;28;20055;-58
2023/06/16 05:05:20;;;;;;;20.30;17.33;;;16.00;99.90;;;;;;5121720;28;20130;-58
2023/06/16 05:07:45;;;;;;;24.27;18.70;;;16.10;99.90;;;;;;5121417;28;20558;-58
2023/06/16 05:10:11;;;;;;;20.50;16.95;;;16.10;99.90;;;;;;5121784;28;20083;-59
2023/06/16 05:12:37;;;;;;;22.05;17.38;;;16.10;99.90;;;;;;5121432;28;20067;-58
2023/06/16 05:15:03;;;;;;;20.58;16.80;;;16.20;99.90;;;;;;5121359;28;20050;-58
2023/06/16 05:17:28;;;;;;;20.50;17.00;;;16.30;99.90;;;;;;5121799;28;20046;-59
2023/06/16 05:19:54;;;;;;;22.20;17.00;;;16.40;99.90;;;;;;5121036;28;20055;-58
2023/06/16 05:22:23;;;;;;;19.50;15.75;;;16.40;99.90;;;;;;5121413;28;20040;-58
2023/06/16 05:24:53;;;;;;;17.65;15.18;;;16.60;99.90;;;;;;5121278;28;20118;-59
2023/06/16 05:27:23;;;;;;;18.65;15.13;;;16.80;99.90;;;;;;5119681;28;20076;-58
2023/06/16 05:29:50;;;;;;;18.35;14.60;;;17.00;99.90;;;;;;5121401;28;20040;-58
2023/06/16 05:32:16;;;;;;;20.92;14.23;;;17.10;99.90;;;;;;5120759;28;20043;-57
2023/06/16 05:34:42;;;;;;;16.73;13.85;;;17.20;99.90;;;;;;5121512;28;20398;-57
2023/06/16 05:37:07;;;;;;;17.23;13.88;;;17.40;99.90;;;;;;5120970;28;20475;-58
2023/06/16 05:39:33;;;;;;;16.95;14.23;;;17.30;99.90;;;;;;5121152;28;20456;-58
2023/06/16 05:41:58;;;;;;;15.48;13.02;;;17.50;99.90;;;;;;5119409;28;20127;-58
2023/06/16 05:44:24;;;;;;;18.02;13.20;;;17.60;99.90;;;;;;5119341;28;20048;-57
2023/06/16 05:46:50;;;;;;;18.25;13.38;;;17.70;99.90;;;;;;5120422;28;20058;-57
2023/06/16 05:49:15;;;;;;;18.08;13.45;;;17.60;99.90;;;;;;5117914;28;20047;-58
2023/06/16 05:51:41;;;;;;;13.98;12.00;;;17.50;99.90;;;;;;5117633;28;20071;-58
2023/06/16 05:54:07;;;;;;;18.50;12.38;;;17.60;99.90;;;;;;5116521;28;20040;-58
2023/06/16 05:56:32;;;;;;;18.45;13.27;;;17.70;99.90;;;;;;5117154;28;20051;-58
2023/06/16 05:58:58;;;;;;;14.65;10.77;;;17.80;99.90;;;;;;5108791;28;20040;-57
2023/06/16 06:01:24;;;;;;;15.10;12.38;;;18.10;99.90;;;;;;5113655;28;20043;-58
2023/06/16 06:03:49;;;;;;;15.30;12.32;;;18.20;99.90;;;;;;5115452;28;20067;-58
2023/06/16 06:06:15;;;;;;;14.07;11.60;;;18.10;99.90;;;;;;5116688;28;20045;-58
2023/06/16 06:08:41;;;;;;;15.02;11.02;;;18.00;99.90;;;;;;5117284;28;20134;-58
2023/06/16 06:11:06;;;;;;;14.15;11.75;;;18.10;99.90;;;;;;5116416;28;20046;-58
2023/06/16 06:13:33;;;;;;;13.10;10.52;;;18.10;99.90;;;;;;5114923;28;20051;-58
2023/06/16 06:16:00;;;;;;;12.75;9.80;;;18.00;99.90;;;;;;5114651;28;20130;-58
2023/06/16 06:18:25;;;;;;;14.00;10.20;;;18.10;99.90;;;;;;5116637;28;20464;-58
2023/06/16 06:20:51;;;;;;;13.40;10.00;;;18.20;99.90;;;;;;5116249;28;20097;-58
2023/06/16 06:23:17;;;;;;;14.23;11.30;;;18.40;99.90;;;;;;5116544;28;20125;-58
2023/06/16 06:25:42;;;;;;;12.93;10.07;;;18.50;99.90;;;;;;5116439;28;20047;-58
2023/06/16 06:28:08;;;;;;;12.40;9.45;;;18.70;99.90;;;;;;5116166;28;20096;-58
2023/06/16 06:30:35;;;;;;;11.73;8.40;;;18.60;99.90;;;;;;5116483;28;20047;-58
2023/06/16 06:33:01;;;;;;;12.18;8.82;;;18.60;99.90;;;;;;5110340;28;20035;-58
2023/06/16 06:35:27;;;;;;;11.27;8.93;;;18.60;99.90;;;;;;5106242;28;20090;-58
2023/06/16 06:37:52;;;;;;;13.90;9.10;;;18.80;99.90;;;;;;5110002;28;20040;-57
2023/06/16 06:40:18;;;;;;;12.45;8.30;;;18.70;99.90;;;;;;5116029;28;20043;-58
2023/06/16 06:42:44;;;;;;;12.15;8.95;;;18.80;99.90;;;;;;5115991;28;20042;-58
2023/06/16 06:45:11;;;;;;;10.70;7.63;;;18.70;99.90;;;;;;5115577;28;20183;-58
2023/06/16 06:47:37;;;;;;;14.60;8.38;;;18.90;99.90;;;;;;5116257;28;20428;-58
2023/06/16 06:50:03;;;;;;;11.80;8.75;;;19.00;99.90;;;;;;5115463;28;20048;-58
2023/06/16 06:52:30;;;;;;;12.75;8.02;;;19.30;99.90;;;;;;5115081;28;20049;-58
2023/06/16 06:54:56;;;;;;;13.43;9.50;;;19.20;99.90;;;;;;5114483;28;20055;-61
2023/06/16 06:57:23;;;;;;;11.55;8.10;;;19.20;99.90;;;;;;5115612;28;20043;-61
2023/06/16 06:59:49;;;;;;;12.35;7.95;;;19.20;99.90;;;;;;5096173;28;20067;-59
2023/06/16 07:02:16;;;;;;;9.77;7.03;;;19.30;99.90;;;;;;5114275;28;20442;-59
2023/06/16 07:04:42;;;;;;;10.00;6.63;;;19.20;99.90;;;;;;5115626;28;20043;-59
2023/06/16 07:07:08;;;;;;;12.48;7.72;;;19.20;99.90;;;;;;5115321;28;20073;-59
2023/06/16 07:09:35;;;;;;;10.82;6.72;;;19.40;99.90;;;;;;5115243;28;20428;-59
2023/06/16 07:12:02;;;;;;;10.63;6.68;;;19.40;99.90;;;;;;5115038;28;20044;-59
2023/06/16 07:14:29;;;;;;;11.60;6.53;;;19.60;99.90;;;;;;5115359;28;20050;-59
2023/06/16 07:16:57;;;;;;;11.15;6.43;;;19.60;99.90;;;;;;5115372;28;20051;-59
2023/06/16 07:19:26;;;;;;;8.38;6.13;;;19.40;99.90;;;;;;5114893;28;20070;-59
2023/06/16 07:21:53;;;;;;;10.50;6.05;;;19.40;99.90;;;;;;5115716;28;20047;-58
2023/06/16 07:24:19;;;;;;;9.93;5.32;;;19.50;99.90;;;;;;5115495;28;20039;-58
2023/06/16 07:26:45;;;;;;;10.27;5.72;;;19.60;99.90;;;;;;5114130;28;20063;-59
2023/06/16 07:29:10;;;;;;;8.93;5.45;;;19.80;99.90;;;;;;5114778;28;20529;-59
2023/06/16 07:31:36;;;;;;;10.65;6.30;;;20.00;99.90;;;;;;5112393;28;20032;-59
2023/06/16 07:34:02;;;;;;;10.10;5.28;;;19.60;99.90;;;;;;5105110;28;20100;-60
2023/06/16 07:36:29;;;;;;;8.35;5.00;;;19.90;99.90;;;;;;5104556;28;20044;-60
2023/06/16 07:38:55;;;;;;;7.68;5.05;;;19.80;99.90;;;;;;5115668;28;20059;-60
2023/06/16 07:41:20;;;;;;;8.80;5.28;;;19.60;99.90;;;;;;5115091;28;20035;-60
2023/06/16 07:43:48;;;;;;;8.15;4.70;;;19.90;99.90;;;;;;5115303;28;20047;-60
2023/06/16 07:46:14;;;;;;;6.70;3.83;;;19.90;99.90;;;;;;5115430;28;20690;-60
2023/06/16 07:48:40;;;;;;;6.97;3.58;;;19.90;96.70;;;;;;5108635;28;20137;-60
2023/06/16 07:51:06;;;;;;;9.85;4.13;;;20.00;95.50;;;;;;5102077;28;20044;-60
2023/06/16 07:53:31;;;;;;;6.55;3.20;;;20.10;96.10;;;;;;5101429;28;20418;-59
2023/06/16 07:55:57;;;;;;;6.03;3.10;;;20.30;95.80;;;;;;5099557;28;20064;-60
2023/06/16 07:58:23;;;;;;;5.80;2.72;;;20.20;94.00;;;;;;5096884;28;20040;-60
2023/06/16 08:00:51;;;;;;;6.85;3.22;;;20.20;91.40;;;;;;5106859;28;20032;-59
2023/06/16 08:03:21;;;;;;;9.75;3.03;;;20.10;93.00;;;;;;5116231;28;20055;-58
2023/06/16 08:05:46;;;;;;;6.38;2.83;;;20.20;91.90;;;;;;5117189;28;20044;-60
2023/06/16 08:08:12;;;;;;;6.75;3.15;;;20.20;91.20;;;;;;5117286;28;20518;-60
2023/06/16 08:10:38;;;;;;;6.47;2.95;;;20.00;88.00;;;;;;5117374;28;20132;-60
2023/06/16 08:13:03;;;;;;;6.93;3.38;;;20.20;91.00;;;;;;5118959;28;20172;-61
2023/06/16 08:15:29;;;;;;;8.68;3.58;;;20.10;91.60;;;;;;5118236;28;20075;-60
2023/06/16 08:17:55;;;;;;;6.50;2.50;;;20.30;91.80;;;;;;5118693;28;20122;-60
2023/06/16 08:20:21;;;;;;;8.80;2.70;;;20.30;87.40;;;;;;5118016;28;20054;-60
2023/06/16 08:22:46;;;;;;;7.32;3.10;;;20.20;90.40;;;;;;5115713;28;20087;-60
2023/06/16 08:25:12;;;;;;;5.97;2.40;;;20.30;91.20;;;;;;5104176;28;20073;-60
2023/06/16 08:27:40;;;;;;;6.50;2.55;;;20.50;90.40;;;;;;5097546;28;20072;-60
2023/06/16 08:30:06;;;;;;;6.45;2.60;;;20.30;85.00;;;;;;5103406;28;20040;-61
2023/06/16 08:32:32;;;;;;;6.88;2.88;;;20.70;87.70;;;;;;5104078;28;20660;-60
2023/06/16 08:34:58;;;;;;;6.22;2.40;;;20.40;84.60;;;;;;5102778;28;20044;-61
2023/06/16 08:37:23;;;;;;;5.78;2.33;;;20.50;86.70;;;;;;5103985;28;20046;-60
2023/06/16 08:39:49;;;;;;;5.40;2.40;;;20.80;86.70;;;;;;5104916;28;20059;-59
2023/06/16 08:42:17;;;;;;;5.80;2.20;;;20.50;82.70;;;;;;5113824;28;20058;-60
2023/06/16 08:44:43;;;;;;;9.30;2.60;;;20.80;84.00;;;;;;5113092;28;20044;-60
2023/06/16 08:47:09;;;;;;;6.15;2.40;;;20.40;81.50;;;;;;5112026;28;20095;-60
2023/06/16 08:49:35;;;;;;;5.70;2.20;;;20.40;81.90;;;;;;5106641;28;20071;-60
2023/06/16 08:52:08;;;;;;;5.32;2.05;;;20.50;80.40;;;;;;5110108;28;20513;-60
2023/06/16 08:54:38;;;;;;;5.28;2.35;;;20.70;82.90;;;;;;5106442;28;20040;-60
2023/06/16 08:57:09;;;;;;;6.97;2.33;;;20.60;78.60;;;;;;5109053;28;20047;-60
2023/06/16 08:59:36;;;;;;;6.13;2.50;;;20.60;79.40;;;;;;5100980;28;20519;-61
2023/06/16 09:02:02;;;;;;;6.60;2.35;;;20.90;81.00;;;;;;5104209;28;20070;-61
2023/06/16 09:04:33;;;;;;;6.25;2.47;;;20.80;79.70;;;;;;5100614;28;20044;-59
2023/06/16 09:06:59;;;;;;;5.97;2.40;;;20.80;83.20;;;;;;5106685;28;20079;-60
2023/06/16 09:09:26;;;;;;;5.78;2.13;;;20.70;80.00;;;;;;5108554;28;20062;-61
2023/06/16 09:12:08;;;;;;;4.75;2.50;;;20.60;78.10;;;;;;5108005;28;20093;-60
2023/06/16 09:14:37;;;;;;;6.95;2.20;;;20.90;82.10;;;;;;5097997;28;20056;-60
2023/06/16 09:17:05;;;;;;;6.10;2.33;;;20.80;80.00;;;;;;5097707;28;20047;-60
2023/06/16 09:19:35;;;;;;;5.00;2.20;;;21.00;81.90;;;;;;5099919;28;20052;-60
2023/06/16 09:22:02;;;;;;;5.75;2.10;;;20.90;80.30;;;;;;5106566;28;20044;-60
2023/06/16 09:24:28;;;;;;;4.50;1.90;;;21.30;78.80;;;;;;5108960;28;20047;-61
2023/06/16 09:26:59;;;;;;;4.60;2.15;;;21.30;79.90;;;;;;5108186;28;20047;-61
2023/06/16 09:29:28;;;;;;;5.40;2.38;;;21.30;79.90;;;;;;5110261;28;20052;-60
2023/06/16 09:32:05;;;;;;;4.82;2.17;;;21.30;77.00;;;;;;5104358;28;20044;-60
2023/06/16 09:34:35;;;;;;;5.97;2.10;;;21.50;75.00;;;;;;5114321;28;20040;-61
2023/06/16 09:37:05;;;;;;;5.32;2.30;;;21.50;77.10;;;;;;5100134;28;20531;-62
2023/06/16 09:39:31;;;;;;;5.50;2.28;;;21.60;75.90;;;;;;5100181;28;20468;-60
2023/06/16 09:41:58;;;;;;;5.00;1.80;;;21.80;75.40;;;;;;5100084;28;20040;-63
2023/06/16 09:44:26;;;;;;;5.40;2.20;;;21.80;75.30;;;;;;5099892;28;20056;-60
2023/06/16 09:46:53;;;;;;;4.90;2.42;;;21.50;73.90;;;;;;5100302;28;20137;-60
2023/06/16 09:49:25;;;;;;;4.93;2.20;;;21.90;73.20;;;;;;5099622;28;20044;-61
2023/06/16 09:51:58;;;;;;;4.55;2.00;;;21.90;70.90;;;;;;5100031;28;20048;-64
2023/06/16 09:54:27;;;;;;;5.25;2.00;;;21.90;69.90;;;;;;5100110;28;20151;-60
2023/06/16 09:56:56;;;;;;;5.07;2.40;;;21.40;67.30;;;;;;5100070;28;20044;-61
2023/06/16 09:59:23;;;;;;;5.28;2.20;;;21.40;71.90;;;;;;5100229;28;20040;-61
2023/06/16 10:01:55;;;;;;;5.25;2.10;;;21.90;71.40;;;;;;5100127;28;20040;-60
2023/06/16 10:04:22;;;;;;;5.32;2.33;;;21.60;66.80;;;;;;5106635;28;20041;-61
2023/06/16 10:07:02;;;;;;;6.18;2.58;;;21.90;68.70;;;;;;5113871;28;20032;-61
2023/06/16 10:09:44;;;;;;;7.15;2.70;;;22.00;70.40;;;;;;5110373;28;20040;-60
2023/06/16 10:12:12;;;;;;;6.35;2.47;;;21.60;70.00;;;;;;5120345;28;20077;-61
2023/06/16 10:14:40;;;;;;;5.10;2.40;;;22.00;71.20;;;;;;5120445;28;20046;-61
2023/06/16 10:17:10;;;;;;;7.93;3.10;;;22.20;71.40;;;;;;5120745;28;20125;-60
2023/06/16 10:19:40;;;;;;;7.15;2.50;;;21.90;68.50;;;;;;5119833;28;20134;-60
2023/06/16 10:22:06;;;;;;;5.60;2.45;;;21.60;67.00;;;;;;5114376;28;20032;-60
2023/06/16 10:24:31;;;;;;;6.07;2.35;;;21.40;69.50;;;;;;5103937;28;20040;-60
2023/06/16 10:26:59;;;;;;;6.22;2.35;;;21.70;67.80;;;;;;5109696;28;20043;-60
2023/06/16 10:29:27;;;;;;;7.25;2.33;;;21.40;72.60;;;;;;5111602;28;20083;-60
2023/06/16 10:32:04;;;;;;;8.32;2.40;;;21.90;70.50;;;;;;5106967;28;20032;-60
2023/06/16 10:34:30;;;;;;;5.97;2.50;;;22.00;71.40;;;;;;5106199;28;20081;-60
2023/06/16 10:36:57;;;;;;;5.75;2.50;;;22.20;70.40;;;;;;5101689;27;20050;-59
2023/06/16 10:39:23;;;;;;;5.28;2.20;;;22.20;72.20;;;;;;5098907;28;20073;-60
2023/06/16 10:42:00;;;;;;;5.25;2.42;;;22.40;73.00;;;;;;5114630;28;20036;-61
2023/06/16 10:44:32;;;;;;;4.97;2.20;;;22.20;69.00;;;;;;5117160;28;20927;-61
2023/06/16 10:47:10;;;;;;;9.07;2.88;;;22.00;68.90;;;;;;5111882;28;20050;-60
2023/06/16 10:50:00;;;;;;;6.10;1.80;;;21.90;67.00;;;;;;5112821;28;20407;-60
2023/06/16 10:52:28;;;;;;;5.60;2.50;;;22.40;70.90;;;;;;5108965;28;20055;-60
2023/06/16 10:54:55;;;;;;;6.32;2.30;;;22.10;68.90;;;;;;5119207;28;20094;-60
2023/06/16 10:57:25;;;;;;;5.30;2.30;;;22.40;70.90;;;;;;5119534;28;20071;-59
2023/06/16 11:00:11;;;;;;;5.30;2.22;;;22.10;69.00;;;;;;5108360;28;20047;-60
2023/06/16 11:02:47;;;;;;;4.78;2.55;;;22.30;70.20;;;;;;5105574;28;20047;-60
2023/06/16 11:05:14;;;;;;;5.70;2.40;;;22.30;69.30;;;;;;5118145;28;20032;-60
2023/06/16 11:08:05;;;;;;;5.07;2.22;;;22.10;68.60;;;;;;5116018;28;20047;-61
2023/06/16 11:10:48;;;;;;;5.65;2.67;;;22.10;71.00;;;;;;5113055;28;20166;-60
2023/06/16 11:13:14;;;;;;;5.72;2.30;;;22.10;70.30;;;;;;5109229;28;20093;-61
2023/06/16 11:15:42;;;;;;;4.65;2.10;;;22.40;67.70;;;;;;5109749;28;20036;-60
2023/06/16 11:18:08;;;;;;;5.60;2.20;;;22.70;68.10;;;;;;5103502;28;20124;-60
2023/06/16 11:20:35;;;;;;;5.43;2.20;;;22.60;69.10;;;;;;5104300;28;20104;-60
2023/06/16 11:23:02;;;;;;;5.78;2.47;;;22.70;68.80;;;;;;5108720;28;20046;-60
2023/06/16 11:25:28;;;;;;;6.05;2.30;;;22.80;69.50;;;;;;5107305;28;20419;-60
2023/06/16 11:27:53;;;;;;;6.50;2.40;;;22.90;68.90;;;;;;5102372;28;20100;-60
2023/06/16 11:30:20;;;;;;;5.30;2.47;;;22.60;69.40;;;;;;5106682;28;20124;-60
2023/06/16 11:32:50;;;;;;;7.18;2.60;;;22.30;65.70;;;;;;5100223;28;20044;-59
2023/06/16 11:35:17;;;;;;;5.43;2.20;;;22.60;66.50;;;;;;5105511;28;20048;-60
2023/06/16 11:37:48;;;;;;;5.03;2.10;;;22.80;69.10;;;;;;5096650;28;20051;-60
2023/06/16 11:40:26;;;;;;;7.85;2.30;;;23.00;66.10;;;;;;5097975;28;20044;-60
2023/06/16 11:42:53;;;;;;;5.40;2.40;;;22.70;65.90;;;;;;5098093;28;20075;-60
2023/06/16 11:45:19;;;;;;;5.13;2.20;;;22.50;65.20;;;;;;5097839;28;20046;-60
2023/06/16 11:47:44;;;;;;;5.20;2.47;;;22.40;67.80;;;;;;5098348;28;20044;-60
2023/06/16 11:50:11;;;;;;;5.55;2.30;;;22.70;66.50;;;;;;5097842;28;20074;-60
2023/06/16 11:52:37;;;;;;;5.43;2.45;;;22.60;69.80;;;;;;5097863;28;20036;-60
2023/06/16 11:55:03;;;;;;;5.72;2.67;;;22.40;68.50;;;;;;5097631;28;20048;-60
2023/06/16 11:57:29;;;;;;;5.75;2.10;;;22.50;68.30;;;;;;5095971;28;20123;-59
2023/06/16 11:59:55;;;;;;;5.90;2.20;;;22.90;69.40;;;;;;5096671;28;20082;-60
2023/06/16 12:02:21;;;;;;;6.25;2.20;;;22.80;68.80;;;;;;5100528;28;20040;-60
2023/06/16 12:04:48;;;;;;;5.32;2.10;;;22.60;68.80;;;;;;5114775;28;20083;-60
2023/06/16 12:07:15;;;;;;;6.70;2.40;;;22.90;68.90;;;;;;5114952;28;20051;-60
2023/06/16 12:09:41;;;;;;;6.20;2.08;;;22.30;69.20;;;;;;5117457;28;20058;-60
2023/06/16 12:12:07;;;;;;;6.10;2.78;;;22.60;68.80;;;;;;5117824;28;20047;-60
2023/06/16 12:14:36;;;;;;;4.82;2.00;;;22.70;69.20;;;;;;5117306;28;20055;-60
2023/06/16 12:17:03;;;;;;;8.52;2.30;;;22.40;67.10;;;;;;5118404;28;20100;-59
2023/06/16 12:19:29;;;;;;;8.25;2.35;;;22.40;70.00;;;;;;5117471;28;20112;-60
2023/06/16 12:22:02;;;;;;;7.75;2.75;;;22.70;68.10;;;;;;5118388;28;20071;-60
2023/06/16 12:24:28;;;;;;;5.68;2.47;;;22.80;64.50;;;;;;5117114;28;20040;-60
2023/06/16 12:26:55;;;;;;;6.10;2.20;;;23.00;67.40;;;;;;5117457;28;20047;-60
2023/06/16 12:29:26;;;;;;;6.53;2.65;;;22.80;68.70;;;;;;5113174;28;20128;-59
2023/06/16 12:32:04;;;;;;;5.80;2.20;;;22.70;67.90;;;;;;5114649;28;20844;-60
2023/06/16 12:34:33;;;;;;;6.97;2.30;;;22.90;68.80;;;;;;5116568;28;20044;-60
2023/06/16 12:37:07;;;;;;;8.18;2.10;;;22.70;68.90;;;;;;5114963;28;20128;-60
2023/06/16 12:39:37;;;;;;;4.75;1.95;;;22.90;67.20;;;;;;5098051;28;20048;-60
2023/06/16 12:42:07;;;;;;;5.78;2.70;;;22.90;70.20;;;;;;5097070;28;20048;-60